Time;durP1;ratioP1;P1;durP2;ratioP2;P2;SDS_P1;SDS_P2;PMS_P1;PMS_P2;Temp;Humidity;BMP_temperature;BMP_pressure;BME280_temperature;BME280_humidity;BME280_pressure;Samples;Min_cycle;Max_cycle;Signal;HPM_P1;HPM_P2
2021/09/16 04:44:53;;;;;;;16.55;11.78;;;;;;;11.48;90.02;98138.67;1827924;78;20876;-61
2021/09/16 04:47:20;;;;;;;19.12;11.33;;;;;;;11.56;89.90;98138.02;1828150;78;21088;-61
2021/09/16 04:49:47;;;;;;;18.37;10.98;;;;;;;11.67;89.63;98140.78;1827863;78;20920;-62
2021/09/16 04:52:15;;;;;;;14.83;10.25;;;;;;;11.73;89.47;98138.28;1827717;78;20932;-62
2021/09/16 04:54:43;;;;;;;14.70;9.85;;;;;;;11.86;89.18;98136.20;1827912;78;21379;-62
2021/09/16 04:57:09;;;;;;;15.03;10.28;;;;;;;11.99;88.80;98144.81;1827818;78;20911;-64
2021/09/16 04:59:36;;;;;;;17.10;10.45;;;;;;;12.11;88.36;98141.66;1827980;78;21378;-62
2021/09/16 05:02:04;;;;;;;14.20;10.25;;;;;;;12.20;87.94;98140.67;1827704;78;20907;-61
2021/09/16 05:04:30;;;;;;;16.30;10.23;;;;;;;12.34;87.48;98144.74;1827795;78;20873;-61
2021/09/16 05:06:57;;;;;;;16.20;10.63;;;;;;;12.45;86.98;98146.67;1827801;78;21048;-62
2021/09/16 05:09:25;;;;;;;18.02;10.85;;;;;;;12.53;86.59;98140.61;1827684;78;20963;-62
2021/09/16 05:11:53;;;;;;;16.40;10.63;;;;;;;12.61;86.29;98146.08;1828370;78;21055;-62
2021/09/16 05:14:20;;;;;;;15.80;11.03;;;;;;;12.69;85.93;98145.39;1827899;78;20900;-62
2021/09/16 05:16:47;;;;;;;18.57;10.38;;;;;;;12.78;85.66;98141.44;1828147;78;21506;-62
2021/09/16 05:19:15;;;;;;;18.70;11.10;;;;;;;12.86;85.33;98138.83;1827688;78;20939;-62
2021/09/16 05:21:43;;;;;;;20.02;10.88;;;;;;;12.95;85.09;98134.90;1828022;78;21366;-62
2021/09/16 05:24:16;;;;;;;21.50;11.40;;;;;;;13.06;84.77;98140.33;1827815;78;21260;-62
2021/09/16 05:26:40;;;;;;;17.92;11.33;;;;;;;13.18;84.53;98143.83;1827387;78;20832;-61
2021/09/16 05:29:08;;;;;;;19.20;12.30;;;;;;;13.30;83.99;98136.03;1827886;78;20956;-61
2021/09/16 05:31:37;;;;;;;16.45;11.70;;;;;;;13.39;83.77;98136.89;1827748;78;20927;-62
2021/09/16 05:34:05;;;;;;;20.95;12.20;;;;;;;13.49;83.63;98137.47;1827792;78;20924;-61
2021/09/16 05:36:34;;;;;;;18.82;10.43;;;;;;;13.60;83.18;98136.11;1827730;78;21172;-62
2021/09/16 05:39:01;;;;;;;13.50;9.60;;;;;;;13.71;82.86;98134.76;1827651;78;20820;-62
2021/09/16 05:41:30;;;;;;;17.67;10.55;;;;;;;13.83;82.28;98130.70;1820894;78;20861;-62
2021/09/16 05:43:58;;;;;;;13.40;10.15;;;;;;;13.94;82.01;98133.41;1816431;79;20916;-62
2021/09/16 05:46:25;;;;;;;16.87;10.40;;;;;;;14.02;81.57;98133.44;1816552;79;20987;-62
2021/09/16 05:48:52;;;;;;;13.18;9.83;;;;;;;14.11;81.21;98126.20;1816621;79;21888;-62
2021/09/16 05:51:19;;;;;;;13.50;9.33;;;;;;;14.20;80.56;98119.52;1816387;79;20900;-62
2021/09/16 05:53:47;;;;;;;13.78;10.03;;;;;;;14.24;80.28;98120.48;1815836;78;20920;-61
2021/09/16 05:56:15;;;;;;;13.10;9.08;;;;;;;14.27;79.96;98117.17;1815993;79;20892;-61
2021/09/16 05:58:43;;;;;;;14.15;9.70;;;;;;;14.30;79.69;98127.34;1815735;79;20964;-61
2021/09/16 06:01:10;;;;;;;13.78;9.53;;;;;;;14.32;79.47;98122.44;1777220;80;21118;-62
2021/09/16 06:03:39;;;;;;;15.80;9.53;;;;;;;14.35;79.30;98126.66;1777117;80;21327;-62
2021/09/16 06:06:08;;;;;;;11.20;8.43;;;;;;;14.39;78.99;98120.09;1777299;80;21331;-63
2021/09/16 06:08:35;;;;;;;11.97;9.08;;;;;;;14.45;78.84;98121.55;1777215;80;20920;-61
2021/09/16 06:11:02;;;;;;;11.22;9.08;;;;;;;14.51;78.83;98128.38;1777495;80;20887;-66
2021/09/16 06:13:31;;;;;;;14.18;9.73;;;;;;;14.59;78.62;98127.63;1776656;80;20884;-63
2021/09/16 06:16:01;;;;;;;15.05;9.85;;;;;;;14.66;78.48;98123.92;1776997;80;20923;-63
2021/09/16 06:18:30;;;;;;;19.12;9.43;;;;;;;14.74;78.23;98129.91;1777089;80;20883;-63
2021/09/16 06:20:58;;;;;;;11.50;9.33;;;;;;;14.79;78.06;98128.95;1777132;80;20979;-64
2021/09/16 06:23:27;;;;;;;14.78;8.80;;;;;;;14.86;77.94;98127.36;1775678;80;20956;-61
2021/09/16 06:25:54;;;;;;;15.40;9.88;;;;;;;14.93;77.75;98133.09;1779170;80;21429;-61
2021/09/16 06:28:23;;;;;;;13.72;9.40;;;;;;;15.00;77.84;98132.07;1777181;80;21407;-61
2021/09/16 06:30:51;;;;;;;14.28;9.08;;;;;;;15.10;77.69;98128.86;1777322;80;20907;-68
2021/09/16 06:33:18;;;;;;;13.60;9.45;;;;;;;15.19;77.47;98133.70;1777290;80;20967;-61
2021/09/16 06:35:45;;;;;;;13.28;9.00;;;;;;;15.30;77.23;98134.97;1777198;80;20932;-65
2021/09/16 06:38:12;;;;;;;18.37;9.05;;;;;;;15.39;77.09;98139.81;1775903;80;21086;-62
2021/09/16 06:40:39;;;;;;;13.60;8.98;;;;;;;15.48;76.78;98128.48;1759576;80;20975;-62
2021/09/16 06:43:07;;;;;;;15.30;8.88;;;;;;;15.56;76.89;98132.55;1746380;82;20978;-65
2021/09/16 06:45:34;;;;;;;11.88;8.93;;;;;;;15.67;76.83;98127.59;1746274;82;20982;-66
2021/09/16 06:48:04;;;;;;;11.25;8.35;;;;;;;15.80;76.86;98129.89;1746274;82;20951;-63
2021/09/16 06:50:31;;;;;;;10.98;8.25;;;;;;;15.98;76.78;98139.54;1724755;82;21046;-62
2021/09/16 06:53:00;;;;;;;17.20;9.03;;;;;;;16.16;76.32;98129.72;1746260;82;21430;-62
2021/09/16 06:55:28;;;;;;;14.45;8.40;;;;;;;16.33;76.02;98131.02;1746520;82;20931;-64
2021/09/16 06:57:55;;;;;;;17.42;8.03;;;;;;;16.49;75.92;98129.14;1746586;82;21463;-63
2021/09/16 07:00:24;;;;;;;11.05;8.28;;;;;;;16.64;75.20;98132.66;1746298;82;21401;-63
2021/09/16 07:02:51;;;;;;;13.30;8.78;;;;;;;16.76;74.80;98136.82;1746556;82;21114;-62
2021/09/16 07:05:18;;;;;;;15.78;8.55;;;;;;;16.86;74.53;98125.63;1748358;80;21498;-63
2021/09/16 07:07:44;;;;;;;10.53;8.13;;;;;;;17.00;74.30;98128.89;1777094;80;21502;-62
2021/09/16 07:10:12;;;;;;;13.20;8.68;;;;;;;17.14;74.11;98125.37;1730201;83;20941;-62
2021/09/16 07:12:40;;;;;;;11.43;7.90;;;;;;;17.30;73.79;98122.30;1743438;82;21396;-62
2021/09/16 07:15:09;;;;;;;15.78;7.80;;;;;;;17.47;73.13;98128.94;1743617;82;21704;-62
2021/09/16 07:17:37;;;;;;;13.05;8.13;;;;;;;17.61;72.90;98122.71;1743418;82;20945;-65
2021/09/16 07:20:06;;;;;;;11.97;7.78;;;;;;;17.73;72.19;98117.31;1743586;82;21538;-61
2021/09/16 07:22:33;;;;;;;10.63;7.78;;;;;;;17.83;71.72;98112.63;1743372;82;20908;-63
2021/09/16 07:25:01;;;;;;;15.10;8.05;;;;;;;17.89;71.28;98109.93;1743620;82;21420;-63
2021/09/16 07:27:30;;;;;;;13.20;7.75;;;;;;;17.94;71.35;98111.08;1743367;82;20940;-61
2021/09/16 07:29:57;;;;;;;10.53;7.83;;;;;;;18.02;71.11;98122.38;1743271;82;20944;-62
2021/09/16 07:32:24;;;;;;;12.43;7.35;;;;;;;18.13;70.71;98116.22;1743422;82;21022;-63
2021/09/16 07:34:52;;;;;;;9.75;7.30;;;;;;;18.28;70.21;98121.52;1743669;82;21416;-62
2021/09/16 07:37:19;;;;;;;12.90;7.75;;;;;;;18.43;69.77;98116.80;1743441;80;20979;-61
2021/09/16 07:39:46;;;;;;;9.53;7.15;;;;;;;18.61;69.47;98119.55;1766923;79;21111;-62
2021/09/16 07:42:14;;;;;;;10.85;7.62;;;;;;;18.78;68.49;98119.33;1773684;80;21303;-62
2021/09/16 07:44:42;;;;;;;13.48;7.67;;;;;;;18.90;68.27;98123.95;1768452;80;21556;-64
2021/09/16 07:47:11;;;;;;;16.07;7.67;;;;;;;19.02;68.02;98123.38;1754843;80;20978;-62
2021/09/16 07:49:39;;;;;;;10.50;8.08;;;;;;;19.16;67.56;98120.86;1788653;80;20892;-62
2021/09/16 07:52:07;;;;;;;14.13;8.13;;;;;;;19.26;66.92;98111.69;1788550;80;21091;-61
2021/09/16 07:54:34;;;;;;;12.98;7.03;;;;;;;19.31;66.79;98107.94;1789332;80;20959;-63
2021/09/16 07:57:01;;;;;;;10.25;6.85;;;;;;;19.33;66.65;98100.23;1807368;78;20908;-61
2021/09/16 07:59:28;;;;;;;11.30;7.22;;;;;;;19.33;66.67;98098.31;1821621;78;21029;-64
2021/09/16 08:01:56;;;;;;;7.75;6.50;;;;;;;19.35;66.48;98100.67;1776884;80;20934;-62
2021/09/16 08:04:23;;;;;;;9.35;6.70;;;;;;;19.37;66.84;98096.52;1781795;80;21074;-62
2021/09/16 08:06:50;;;;;;;12.03;7.15;;;;;;;19.44;66.81;98098.63;1769975;80;21407;-61
2021/09/16 08:09:18;;;;;;;10.23;6.40;;;;;;;19.48;66.46;98098.16;1763711;80;20997;-66
2021/09/16 08:11:45;;;;;;;11.60;6.17;;;;;;;19.55;66.54;98099.71;1760070;80;21049;-64
2021/09/16 08:14:13;;;;;;;10.18;6.15;;;;;;;19.64;66.29;98103.86;1779044;80;20848;-64
2021/09/16 08:16:41;;;;;;;12.45;6.78;;;;;;;19.72;66.00;98103.50;1770302;80;21808;-65
2021/09/16 08:19:08;;;;;;;11.12;6.35;;;;;;;19.78;65.28;98100.77;1781569;80;21525;-60
2021/09/16 08:21:37;;;;;;;8.50;6.30;;;;;;;19.88;64.71;98089.38;1780619;79;20976;-61
2021/09/16 08:24:05;;;;;;;8.93;6.28;;;;;;;20.03;64.75;98098.70;1802336;78;20982;-60
2021/09/16 08:26:32;;;;;;;15.50;6.55;;;;;;;20.18;64.13;98082.98;1782253;80;20943;-66
2021/09/16 08:28:59;;;;;;;13.28;7.00;;;;;;;20.34;63.28;98084.59;1781376;80;21156;-62
2021/09/16 08:31:26;;;;;;;9.23;6.40;;;;;;;20.45;62.75;98082.91;1781783;80;20920;-61
2021/09/16 08:33:56;;;;;;;9.60;6.35;;;;;;;20.58;63.25;98080.09;1781281;80;20974;-60
2021/09/16 08:36:25;;;;;;;9.15;5.55;;;;;;;20.73;62.92;98071.11;1818663;78;20981;-64
2021/09/16 08:38:54;;;;;;;9.15;6.85;;;;;;;20.90;62.14;98081.61;1856095;77;21047;-63
2021/09/16 08:41:21;;;;;;;11.10;6.67;;;;;;;21.00;62.31;98082.43;1854311;77;21107;-61
2021/09/16 08:43:49;;;;;;;11.10;7.10;;;;;;;21.12;62.16;98082.34;1850675;77;21017;-62
2021/09/16 08:46:17;;;;;;;12.35;7.12;;;;;;;21.26;62.00;98081.28;1851034;77;21485;-62
2021/09/16 08:48:44;;;;;;;10.95;7.42;;;;;;;21.37;61.28;98079.55;1850457;77;20949;-60
2021/09/16 08:51:14;;;;;;;11.03;7.42;;;;;;;21.45;61.22;98078.56;1849681;77;21047;-62
2021/09/16 08:53:43;;;;;;;11.15;7.05;;;;;;;21.52;60.97;98077.91;1850903;77;21124;-63
2021/09/16 08:56:10;;;;;;;9.08;6.60;;;;;;;21.60;61.33;98076.31;1843097;77;21159;-62
2021/09/16 08:58:38;;;;;;;10.32;7.37;;;;;;;21.71;60.62;98084.14;1818641;77;21467;-62
2021/09/16 09:01:05;;;;;;;12.55;6.50;;;;;;;21.80;60.16;98076.52;1801229;77;21043;-64
2021/09/16 09:03:32;;;;;;;9.40;6.35;;;;;;;21.91;59.66;98074.58;1808601;79;20931;-64
2021/09/16 09:06:02;;;;;;;9.05;6.20;;;;;;;21.99;59.85;98070.27;1815258;78;21058;-63
2021/09/16 09:08:30;;;;;;;11.88;6.70;;;;;;;22.10;60.09;98071.24;1775526;80;20974;-61
2021/09/16 09:11:03;;;;;;;11.85;6.47;;;;;;;22.22;59.75;98071.06;1775712;80;21122;-61
2021/09/16 09:13:34;;;;;;;8.40;6.40;;;;;;;22.32;58.73;98065.58;1775859;80;20931;-62
2021/09/16 09:16:07;;;;;;;8.55;6.40;;;;;;;22.35;58.11;98061.52;1770139;80;21101;-63
2021/09/16 09:18:45;;;;;;;8.98;6.78;;;;;;;22.42;58.01;98063.61;1745155;81;20966;-63
2021/09/16 09:21:15;;;;;;;8.53;6.72;;;;;;;22.52;58.03;98061.59;1744237;82;20982;-64
2021/09/16 09:23:54;;;;;;;11.00;7.55;;;;;;;22.64;58.13;98057.91;1744847;82;21026;-65
2021/09/16 09:26:30;;;;;;;12.25;7.92;;;;;;;22.75;57.26;98058.27;1746298;82;21474;-60
2021/09/16 09:29:11;;;;;;;10.18;7.25;;;;;;;22.86;57.13;98057.87;1746595;82;20998;-63
2021/09/16 09:31:42;;;;;;;9.23;6.97;;;;;;;22.95;56.14;98058.37;1754203;80;21120;-63
2021/09/16 09:34:32;;;;;;;11.68;7.08;;;;;;;23.01;55.56;98058.25;1775655;80;20927;-63
2021/09/16 09:37:19;;;;;;;9.43;7.33;;;;;;;23.06;55.63;98055.20;1776706;80;20916;-67
2021/09/16 09:39:49;;;;;;;9.43;7.20;;;;;;;23.14;55.62;98050.63;1766169;80;21415;-62
2021/09/16 09:42:25;;;;;;;11.10;7.10;;;;;;;23.28;55.58;98044.55;1765862;80;20995;-63
2021/09/16 09:44:54;;;;;;;8.08;6.60;;;;;;;23.38;54.79;98051.56;1765690;80;22328;-63
2021/09/16 09:47:44;;;;;;;9.03;6.55;;;;;;;23.37;54.67;98043.72;1765593;80;20917;-61
2021/09/16 09:50:24;;;;;;;7.08;6.30;;;;;;;23.32;54.67;98044.03;1766014;80;20896;-60
2021/09/16 09:52:53;;;;;;;7.92;6.40;;;;;;;23.27;54.64;98050.59;1765911;81;20948;-63
2021/09/16 09:55:24;;;;;;;10.03;7.53;;;;;;;23.25;55.06;98041.22;1765871;80;20924;-63
2021/09/16 09:58:01;;;;;;;10.93;6.97;;;;;;;23.23;54.87;98031.21;1765857;81;21349;-62
2021/09/16 10:00:28;;;;;;;8.68;6.87;;;;;;;23.21;54.68;98043.09;1765820;81;20928;-62
2021/09/16 10:02:56;;;;;;;8.15;6.67;;;;;;;23.17;55.22;98039.54;1765976;80;21000;-64
2021/09/16 10:05:30;;;;;;;11.25;6.97;;;;;;;23.17;54.83;98045.01;1765982;81;20953;-67
2021/09/16 10:08:08;;;;;;;15.58;6.92;;;;;;;23.17;55.44;98038.17;1766350;81;20980;-62
2021/09/16 10:10:50;;;;;;;8.50;6.67;;;;;;;23.24;55.43;98032.80;1766184;81;21050;-60
2021/09/16 10:13:18;;;;;;;9.25;7.20;;;;;;;23.29;54.88;98025.07;1766032;80;21442;-62
2021/09/16 10:15:51;;;;;;;12.63;6.40;;;;;;;23.33;54.91;98025.09;1766496;80;20976;-62
2021/09/16 10:18:21;;;;;;;12.53;7.72;;;;;;;23.36;54.32;98032.02;1766231;80;20940;-61
2021/09/16 10:20:49;;;;;;;11.85;7.30;;;;;;;23.36;54.39;98032.59;1766152;80;20928;-62
2021/09/16 10:23:16;;;;;;;8.83;6.72;;;;;;;23.30;54.60;98021.16;1725774;81;21327;-61
2021/09/16 10:25:47;;;;;;;9.00;6.87;;;;;;;23.32;54.28;98020.81;1734826;82;21031;-62
2021/09/16 10:28:15;;;;;;;8.23;6.53;;;;;;;23.35;54.54;98020.07;1735397;82;21739;-63
2021/09/16 10:30:44;;;;;;;10.00;6.50;;;;;;;23.41;54.08;98024.06;1735503;82;21036;-64
2021/09/16 10:33:26;;;;;;;10.10;7.08;;;;;;;23.49;54.01;98021.60;1734404;82;21055;-60
2021/09/16 10:36:07;;;;;;;13.98;7.80;;;;;;;23.56;54.28;98021.68;1734183;82;21027;-61
2021/09/16 10:38:43;;;;;;;10.85;7.35;;;;;;;23.67;54.29;98018.50;1735803;82;20967;-61
2021/09/16 10:41:29;;;;;;;10.88;6.80;;;;;;;23.78;53.84;98024.85;1735766;82;21399;-61
2021/09/16 10:46:45;;;;;;;12.33;6.83;;;;;;;23.80;52.31;98015.69;1792095;80;20986;-61
2021/09/16 10:49:26;;;;;;;9.40;6.85;;;;;;;23.80;52.93;98021.16;1792395;79;21078;-61
2021/09/16 10:52:14;;;;;;;10.43;6.40;;;;;;;23.78;52.62;98013.34;1790342;80;21039;-60
2021/09/16 10:54:51;;;;;;;11.33;7.12;;;;;;;23.78;52.78;98013.91;1790468;80;21032;-60
2021/09/16 10:57:36;;;;;;;12.28;7.05;;;;;;;23.79;52.50;98015.47;1790511;79;21021;-61
2021/09/16 11:00:07;;;;;;;14.05;6.65;;;;;;;23.81;52.41;98011.80;1791779;80;20947;-62
2021/09/16 11:02:47;;;;;;;10.23;6.80;;;;;;;23.86;52.39;98012.80;1790414;79;21126;-62
2021/09/16 11:05:16;;;;;;;9.03;6.60;;;;;;;23.91;51.99;98004.26;1813443;77;20959;-64
2021/09/16 11:07:49;;;;;;;8.30;6.50;;;;;;;23.99;52.61;98003.75;1824375;78;20920;-61
2021/09/16 11:10:29;;;;;;;14.30;6.67;;;;;;;24.12;52.23;98005.08;1824509;77;20940;-61
2021/09/16 11:13:07;;;;;;;9.83;6.83;;;;;;;24.24;52.08;98002.03;1811571;78;21021;-60
2021/09/16 11:15:38;;;;;;;9.90;6.87;;;;;;;24.35;51.42;98000.94;1745074;82;21130;-62
2021/09/16 11:18:09;;;;;;;9.75;7.30;;;;;;;24.44;51.48;97998.69;1817738;79;20915;-66
2021/09/16 11:20:37;;;;;;;7.92;7.10;;;;;;;24.56;51.29;97990.74;1817048;78;21442;-62
2021/09/16 11:23:06;;;;;;;7.55;6.78;;;;;;;24.72;51.91;97993.17;1784561;80;21021;-63
2021/09/16 11:25:45;;;;;;;10.40;6.83;;;;;;;24.89;50.95;97992.52;1785012;80;21391;-62
2021/09/16 11:28:12;;;;;;;11.28;7.20;;;;;;;25.00;50.10;97994.72;1784983;80;21058;-62
2021/09/16 11:30:41;;;;;;;9.20;6.58;;;;;;;25.07;49.87;97990.64;1784657;80;21545;-62
2021/09/16 11:33:13;;;;;;;9.38;7.00;;;;;;;25.13;49.75;97988.51;1785521;80;20895;-65
2021/09/16 11:35:41;;;;;;;10.28;6.95;;;;;;;25.18;49.72;97981.87;1785533;80;21418;-63
2021/09/16 11:38:08;;;;;;;13.00;6.97;;;;;;;25.23;49.98;97984.23;1755627;79;21504;-62
2021/09/16 11:40:46;;;;;;;11.40;7.20;;;;;;;25.30;49.36;97979.36;1763787;79;21249;-62
2021/09/16 11:43:16;;;;;;;8.95;6.17;;;;;;;25.29;49.60;97977.81;1781278;78;21388;-65
2021/09/16 11:45:48;;;;;;;8.90;6.87;;;;;;;25.23;49.97;97972.48;1784578;80;21352;-63
2021/09/16 11:48:24;;;;;;;12.33;6.70;;;;;;;25.14;49.85;97969.53;1780495;80;21003;-65
2021/09/16 11:51:01;;;;;;;8.23;6.28;;;;;;;25.01;50.00;97962.05;1785458;79;21482;-62
2021/09/16 11:53:32;;;;;;;9.50;6.83;;;;;;;24.91;50.10;97965.52;1823565;78;21782;-62
2021/09/16 11:56:03;;;;;;;11.33;6.90;;;;;;;24.84;50.37;97960.80;1823957;78;20926;-63
2021/09/16 11:58:36;;;;;;;9.20;6.50;;;;;;;24.94;50.55;97955.17;1823487;77;21536;-62
2021/09/16 12:01:14;;;;;;;9.95;6.45;;;;;;;25.01;50.16;97956.58;1822948;78;20958;-62
2021/09/16 12:03:44;;;;;;;8.08;6.50;;;;;;;25.04;50.05;97961.27;1824233;77;20911;-63
2021/09/16 12:06:15;;;;;;;7.75;6.12;;;;;;;24.94;49.91;97952.44;1824032;78;21869;-62
2021/09/16 12:08:53;;;;;;;9.03;6.00;;;;;;;24.82;50.16;97952.77;1824348;78;20920;-62
2021/09/16 12:11:26;;;;;;;10.05;6.00;;;;;;;24.74;50.17;97952.48;1822888;77;20907;-63
2021/09/16 12:14:00;;;;;;;8.75;6.40;;;;;;;24.76;50.35;97941.38;1823078;77;21076;-62
2021/09/16 12:16:35;;;;;;;7.42;5.75;;;;;;;24.91;50.29;97940.87;1823433;78;21533;-62
2021/09/16 12:19:09;;;;;;;15.72;6.70;;;;;;;25.11;50.58;97936.63;1783880;80;21115;-62
2021/09/16 12:21:39;;;;;;;9.73;6.97;;;;;;;25.34;50.44;97931.62;1754062;80;21041;-62
2021/09/16 12:24:11;;;;;;;8.08;6.35;;;;;;;25.52;49.58;97928.35;1783923;80;21497;-62
2021/09/16 12:26:46;;;;;;;10.50;6.62;;;;;;;25.58;49.63;97924.62;1785336;80;20884;-62
2021/09/16 12:29:25;;;;;;;10.98;6.92;;;;;;;25.55;49.04;97926.80;1784778;80;20824;-62
2021/09/16 12:32:01;;;;;;;12.13;9.33;;;;;;;25.45;49.26;97926.18;1785383;80;21185;-62
2021/09/16 12:34:30;;;;;;;11.97;7.50;;;;;;;25.36;49.48;97923.00;1785284;80;20962;-62
2021/09/16 12:37:01;;;;;;;12.60;7.53;;;;;;;25.29;49.53;97924.36;1784970;80;21405;-65
2021/09/16 12:39:47;;;;;;;7.42;6.50;;;;;;;25.26;49.76;97921.80;1785093;80;20906;-62
2021/09/16 12:42:16;;;;;;;7.67;6.47;;;;;;;25.27;49.18;97917.91;1785183;80;20847;-63
2021/09/16 12:44:43;;;;;;;13.48;6.85;;;;;;;25.26;49.71;97914.95;1783734;80;21802;-64
2021/09/16 12:47:15;;;;;;;10.30;6.60;;;;;;;25.30;49.97;97910.25;1785180;80;20875;-63
2021/09/16 12:49:48;;;;;;;11.18;6.22;;;;;;;25.34;49.41;97909.70;1784974;80;20911;-65
2021/09/16 12:52:29;;;;;;;8.95;6.10;;;;;;;25.35;49.90;97909.09;1784157;80;20986;-63
2021/09/16 12:58:42;;;;;;;7.75;6.40;;;;;;;25.49;49.80;97896.80;1871599;76;22219;-62
2021/09/16 13:01:09;;;;;;;7.42;6.33;;;;;;;25.45;49.24;97894.06;1827949;78;20918;-62
2021/09/16 13:03:37;;;;;;;16.97;9.00;;;;;;;25.55;49.84;97891.94;1827716;78;21154;-62
2021/09/16 13:06:11;;;;;;;11.10;8.13;;;;;;;25.71;49.61;97890.96;1827864;78;20915;-64
2021/09/16 13:08:43;;;;;;;13.72;7.90;;;;;;;25.80;49.34;97891.92;1827629;78;21414;-62
2021/09/16 13:11:25;;;;;;;14.23;8.33;;;;;;;25.78;49.15;97885.47;1827832;78;20881;-61
2021/09/16 13:14:12;;;;;;;11.48;7.35;;;;;;;25.70;49.06;97888.59;1828039;78;20860;-61
2021/09/16 13:16:41;;;;;;;9.15;6.85;;;;;;;25.58;49.02;97888.39;1827753;78;20844;-62
2021/09/16 13:19:09;;;;;;;12.00;7.55;;;;;;;25.49;49.63;97883.88;1827717;78;21407;-62
2021/09/16 13:21:38;;;;;;;13.83;7.47;;;;;;;25.42;49.88;97882.47;1827772;78;20833;-61
2021/09/16 13:24:06;;;;;;;11.95;6.95;;;;;;;25.36;50.29;97879.94;1827755;78;20958;-62
2021/09/16 13:26:35;;;;;;;7.97;6.47;;;;;;;25.30;50.08;97875.98;1827750;78;20927;-61
2021/09/16 13:29:02;;;;;;;9.98;6.42;;;;;;;25.23;50.25;97879.30;1827880;78;21113;-61
2021/09/16 13:31:30;;;;;;;10.35;6.40;;;;;;;25.14;50.44;97881.84;1827588;78;20904;-61
2021/09/16 13:33:57;;;;;;;9.40;6.78;;;;;;;25.06;50.65;97874.77;1827807;78;20928;-62
2021/09/16 13:36:26;;;;;;;10.55;7.53;;;;;;;25.03;51.12;97880.25;1827521;78;20939;-62
2021/09/16 13:38:53;;;;;;;13.95;7.55;;;;;;;25.03;51.57;97880.25;1828026;78;21043;-62
2021/09/16 13:41:21;;;;;;;10.72;7.25;;;;;;;25.03;51.42;97870.66;1827765;78;20907;-63
2021/09/16 13:43:51;;;;;;;10.03;7.53;;;;;;;25.01;51.06;97870.27;1827816;78;21411;-62
2021/09/16 13:46:19;;;;;;;9.48;7.12;;;;;;;24.98;50.44;97873.77;1827821;78;20832;-62
2021/09/16 13:48:46;;;;;;;13.50;7.70;;;;;;;24.96;50.26;97874.75;1827715;78;21528;-62
2021/09/16 13:51:15;;;;;;;9.15;7.50;;;;;;;24.95;50.64;97875.33;1827719;78;20990;-62
2021/09/16 13:53:43;;;;;;;11.90;8.40;;;;;;;24.98;50.44;97872.41;1827870;78;20998;-63
2021/09/16 13:56:10;;;;;;;10.85;7.00;;;;;;;24.97;50.71;97870.25;1828077;78;20872;-62
2021/09/16 13:58:39;;;;;;;7.95;6.83;;;;;;;25.00;50.87;97867.31;1823098;78;20915;-62
2021/09/16 14:01:06;;;;;;;8.43;7.10;;;;;;;25.00;50.68;97872.80;1822954;78;20955;-64
2021/09/16 14:03:34;;;;;;;14.68;8.88;;;;;;;24.95;50.96;97867.69;1822538;78;20963;-61
2021/09/16 14:06:01;;;;;;;15.08;8.83;;;;;;;24.92;51.57;97867.87;1819895;78;21078;-63
2021/09/16 14:08:29;;;;;;;10.85;8.00;;;;;;;24.86;51.14;97866.70;1821237;77;20864;-63
2021/09/16 14:10:58;;;;;;;13.13;7.65;;;;;;;24.79;51.15;97868.63;1820991;78;21047;-62
2021/09/16 14:13:25;;;;;;;9.40;8.03;;;;;;;24.69;51.34;97863.27;1821778;78;20924;-62
2021/09/16 14:15:53;;;;;;;17.02;11.00;;;;;;;24.61;51.62;97869.12;1821898;78;20952;-61
2021/09/16 14:18:21;;;;;;;31.15;18.62;;;;;;;24.54;52.17;97859.50;1821916;78;20876;-63
2021/09/16 14:20:48;;;;;;;39.88;24.85;;;;;;;24.48;52.62;97858.50;1822248;78;20864;-62
2021/09/16 14:23:18;;;;;;;34.38;22.93;;;;;;;24.45;53.21;97858.47;1821948;78;21478;-60
2021/09/16 14:25:46;;;;;;;32.98;24.25;;;;;;;24.39;53.53;97858.06;1821480;78;21018;-63
2021/09/16 14:28:14;;;;;;;31.93;20.80;;;;;;;24.33;53.80;97860.19;1821235;77;21540;-63
2021/09/16 14:30:42;;;;;;;25.60;18.00;;;;;;;24.26;54.28;97856.81;1820313;78;21055;-62
2021/09/16 14:33:11;;;;;;;29.70;19.17;;;;;;;24.19;54.59;97858.14;1820215;78;21846;-63
2021/09/16 14:35:40;;;;;;;24.67;16.45;;;;;;;24.12;54.75;97860.83;1820320;77;21214;-62
2021/09/16 14:38:07;;;;;;;25.30;18.57;;;;;;;24.04;54.96;97862.52;1820257;78;21009;-62
2021/09/16 14:40:34;;;;;;;28.92;20.70;;;;;;;23.96;55.24;97855.42;1820440;78;21090;-63
2021/09/16 14:43:01;;;;;;;30.52;19.75;;;;;;;23.89;55.54;97856.16;1821975;78;21185;-62
2021/09/16 14:45:31;;;;;;;25.48;17.70;;;;;;;23.81;55.73;97854.56;1821818;78;20876;-62
2021/09/16 14:47:59;;;;;;;30.20;15.85;;;;;;;23.75;55.92;97858.79;1821974;78;20833;-63
2021/09/16 14:50:28;;;;;;;22.70;15.65;;;;;;;23.68;55.87;97854.64;1821901;78;20907;-63
2021/09/16 14:52:55;;;;;;;23.85;17.23;;;;;;;23.62;56.03;97855.56;1821870;78;20932;-63
2021/09/16 14:55:23;;;;;;;29.37;18.55;;;;;;;23.58;56.19;97849.86;1821944;77;21103;-62
2021/09/16 14:57:50;;;;;;;22.95;17.90;;;;;;;23.54;56.45;97855.89;1824266;78;20908;-60
